Saikhan-Ovoo, Mongolia
Current Conditions -  °F | °C
As of 11:00 AM on Monday 24 Nov 2014 (Local Time) from ZMUB Reporting Station
Broken Clouds Broken Clouds  
Wind Chill: 18°   Ceiling: 25000
Heat Index: 18°   Visibility: 6mi
Dew Point:   Wind: 2mph
Humidity: 45%   Direction: NA
Pressure: 29.88"   Gusts: NA
Location:  45.45°N, 103.9°E
Report Text: ZMUB 240300Z VRB01MPS 9999 BKN250 M08/M18 Q1012 NOSIG RMK QFE652.2 41 MOP
Loading
Personal Weather Stations






























Interactive Weather Map New forecast layout! Learn more

10-Day Weather Forecast

Advertisements
Track Severe Weather on mobile